createdAt,value
2018-07-14T00:01:09.867Z,101442.91
2018-07-14T00:03:37.913Z,101447.22
2018-07-14T00:06:05.591Z,101444.77
2018-07-14T00:08:33.219Z,101446.83
2018-07-14T00:11:02.047Z,101443.66
2018-07-14T00:13:29.752Z,101436.77
2018-07-14T00:15:58.323Z,101438.62
2018-07-14T00:18:26.988Z,101436.69
2018-07-14T00:20:54.623Z,101435.20
2018-07-14T00:23:22.277Z,101437.33
2018-07-14T00:25:55.635Z,101444.81
2018-07-14T00:28:23.359Z,101440.27
2018-07-14T00:30:51.264Z,101439.29
2018-07-14T00:33:18.908Z,101443.11
2018-07-14T00:35:46.667Z,101444.20
2018-07-14T00:38:14.903Z,101444.84
2018-07-14T00:40:43.897Z,101443.73
2018-07-14T00:43:11.554Z,101445.69
2018-07-14T00:45:39.391Z,101445.94
2018-07-14T00:48:06.985Z,101441.66
2018-07-14T00:50:34.692Z,101452.58
2018-07-14T00:53:03.093Z,101447.78
2018-07-14T00:55:30.723Z,101446.67
2018-07-14T00:57:59.170Z,101439.42
2018-07-14T01:00:26.986Z,101441.38
2018-07-14T01:02:54.626Z,101443.48
2018-07-14T01:05:22.562Z,101444.21
2018-07-14T01:07:50.405Z,101437.58
2018-07-14T01:10:18.100Z,101443.34
2018-07-14T01:12:46.180Z,101442.24
2018-07-14T01:15:14.508Z,101437.53
2018-07-14T01:17:42.196Z,101431.15
2018-07-14T01:20:10.015Z,101427.94
2018-07-14T01:22:37.925Z,101437.27
2018-07-14T01:25:05.816Z,101432.23
2018-07-14T01:27:33.891Z,101437.88
2018-07-14T01:30:01.606Z,101434.67
2018-07-14T01:32:29.267Z,101435.14
2018-07-14T01:34:57.156Z,101428.52
2018-07-14T01:37:24.965Z,101438.05
2018-07-14T01:39:52.636Z,101433.01
2018-07-14T01:42:20.722Z,101430.66
2018-07-14T01:44:48.680Z,101430.54
2018-07-14T01:47:16.587Z,101433.59
2018-07-14T01:49:44.458Z,101437.39
2018-07-14T01:52:12.333Z,101431.09
2018-07-14T01:54:40.018Z,101421.16
2018-07-14T01:57:07.858Z,101423.22
2018-07-14T01:59:35.814Z,101423.94
2018-07-14T02:02:03.403Z,101422.45
2018-07-14T02:04:31.249Z,101417.38
2018-07-14T02:06:59.164Z,101417.62
2018-07-14T02:09:26.757Z,101413.33
2018-07-14T02:11:54.557Z,101416.73
2018-07-14T02:14:22.357Z,101421.00
2018-07-14T02:16:49.990Z,101420.25
2018-07-14T02:19:17.843Z,101414.61
2018-07-14T02:21:45.632Z,101418.77
2018-07-14T02:24:13.219Z,101421.94
2018-07-14T02:26:42.058Z,101416.30
2018-07-14T02:29:09.776Z,101420.46
2018-07-14T02:31:37.435Z,101428.15
2018-07-14T02:34:05.326Z,101423.75
2018-07-14T02:36:33.338Z,101416.25
2018-07-14T02:39:00.995Z,101418.70
2018-07-14T02:41:28.680Z,101415.25
2018-07-14T02:43:56.715Z,101417.33
2018-07-14T02:46:24.364Z,101410.32
2018-07-14T02:48:52.285Z,101411.78
2018-07-14T02:51:20.180Z,101419.02
2018-07-14T02:53:47.791Z,101417.67
2018-07-14T02:56:16.504Z,101414.98
2018-07-14T02:58:44.321Z,101417.79
2018-07-14T03:01:11.947Z,101422.30
2018-07-14T03:03:39.647Z,101416.80
2018-07-14T03:06:07.441Z,101419.50
2018-07-14T03:08:35.139Z,101417.67
2018-07-14T03:11:03.160Z,101423.91
2018-07-14T03:13:30.856Z,101425.13
2018-07-14T03:15:58.508Z,101420.50
2018-07-14T03:18:26.294Z,101423.09
2018-07-14T03:20:53.985Z,101425.78
2018-07-14T03:23:21.728Z,101429.23
2018-07-14T03:25:49.570Z,101427.38
2018-07-14T03:28:17.239Z,101427.26
2018-07-14T03:30:44.942Z,101427.26
2018-07-14T03:33:13.236Z,101419.94
2018-07-14T03:35:41.069Z,101429.73
2018-07-14T03:38:08.723Z,101426.92
2018-07-14T03:40:36.493Z,101432.70
2018-07-14T03:43:04.657Z,101429.38
2018-07-14T03:45:32.436Z,101433.20
2018-07-14T03:48:00.265Z,101422.30
2018-07-14T03:50:27.922Z,101418.91
2018-07-14T03:52:55.467Z,101414.52
2018-07-14T03:55:23.211Z,101416.50
2018-07-14T03:57:50.866Z,101417.50
2018-07-14T04:00:18.490Z,101413.22
2018-07-14T04:02:46.410Z,101416.48
2018-07-14T04:05:14.547Z,101413.03
2018-07-14T04:07:42.254Z,101413.20
2018-07-14T04:10:09.946Z,101410.98
2018-07-14T04:12:37.726Z,101408.56
2018-07-14T04:15:05.509Z,101411.77
2018-07-14T04:17:33.335Z,101407.38
2018-07-14T04:20:01.386Z,101408.84
2018-07-14T04:22:29.093Z,101411.55
2018-07-14T04:24:56.914Z,101411.58
2018-07-14T04:27:24.831Z,101409.36
2018-07-14T04:29:52.482Z,101410.27
2018-07-14T04:32:20.367Z,101415.18
2018-07-14T04:34:48.226Z,101412.96
2018-07-14T04:37:15.847Z,101416.16
2018-07-14T04:39:43.768Z,101425.12
2018-07-14T04:42:11.635Z,101423.41
2018-07-14T04:44:39.285Z,101419.39
2018-07-14T04:47:07.500Z,101426.13
2018-07-14T04:49:35.097Z,101428.38
2018-07-14T04:52:02.672Z,101426.54
2018-07-14T04:54:30.472Z,101425.56
2018-07-14T04:56:58.686Z,101425.07
2018-07-14T04:59:26.358Z,101423.70
2018-07-14T05:01:54.166Z,101427.26
2018-07-14T05:04:21.983Z,101417.94
2018-07-14T05:06:49.598Z,101419.63
2018-07-14T05:09:17.510Z,101425.05
2018-07-14T05:11:45.414Z,101427.25
2018-07-14T05:14:13.694Z,101425.39
2018-07-14T05:16:41.728Z,101421.31
2018-07-14T05:19:09.628Z,101429.78
2018-07-14T05:21:37.282Z,101426.58
2018-07-14T05:24:05.187Z,101422.88
2018-07-14T05:26:33.049Z,101416.64
2018-07-14T05:29:00.640Z,101410.72
2018-07-14T05:31:28.418Z,101410.20
2018-07-14T05:33:56.187Z,101410.52
2018-07-14T05:36:23.794Z,101409.64
2018-07-14T05:38:51.744Z,101406.80
2018-07-14T05:41:19.590Z,101409.47
2018-07-14T05:43:47.329Z,101414.71
2018-07-14T05:46:15.120Z,101413.70
2018-07-14T05:48:43.121Z,101418.23
2018-07-14T05:51:10.817Z,101410.94
2018-07-14T05:53:38.639Z,101413.98
2018-07-14T05:56:06.305Z,101407.52
2018-07-14T05:58:33.937Z,101411.44
2018-07-14T06:01:01.838Z,101409.44
2018-07-14T06:03:29.758Z,101408.91
2018-07-14T06:05:57.510Z,101407.74
2018-07-14T06:08:25.364Z,101402.27
2018-07-14T06:10:53.174Z,101402.21
2018-07-14T06:13:20.894Z,101401.05
2018-07-14T06:15:48.533Z,101403.59
2018-07-14T06:18:16.312Z,101403.73
2018-07-14T06:20:43.964Z,101402.35
2018-07-14T06:23:11.660Z,101398.57
2018-07-14T06:25:39.485Z,101406.53
2018-07-14T06:28:07.124Z,101398.47
2018-07-14T06:30:34.979Z,101394.85
2018-07-14T06:33:02.892Z,101399.75
2018-07-14T06:35:30.516Z,101393.28
2018-07-14T06:37:58.578Z,101391.22
2018-07-14T06:40:26.367Z,101387.94
2018-07-14T06:42:54.024Z,101381.95
2018-07-14T06:45:22.099Z,101380.03
2018-07-14T06:47:49.856Z,101381.68
2018-07-14T06:50:17.620Z,101392.80
2018-07-14T06:52:45.340Z,101379.03
2018-07-14T06:57:32.777Z,101383.45
2018-07-14T07:00:00.697Z,101373.86
2018-07-14T07:02:28.360Z,101374.53
2018-07-14T07:04:56.171Z,101379.27
2018-07-14T07:07:23.957Z,101377.32
2018-07-14T07:09:51.640Z,101378.44
2018-07-14T07:12:19.536Z,101373.63
2018-07-14T07:15:49.903Z,101374.11
2018-07-14T07:18:17.624Z,101374.58
2018-07-14T07:20:45.272Z,101374.50
2018-07-14T07:23:13.045Z,101371.69
2018-07-14T07:25:40.789Z,101378.38
2018-07-14T07:28:08.419Z,101376.79
2018-07-14T07:30:36.156Z,101381.66
2018-07-14T07:33:03.840Z,101377.47
2018-07-14T07:35:31.448Z,101380.75
2018-07-14T07:37:59.324Z,101274.23
2018-07-14T07:40:27.119Z,101378.83
2018-07-14T07:42:54.781Z,101379.58
2018-07-14T07:45:22.601Z,101371.84
2018-07-14T07:47:50.314Z,101369.03
2018-07-14T07:50:17.977Z,101369.78
2018-07-14T07:52:46.142Z,101373.74
2018-07-14T07:55:13.803Z,101371.42
2018-07-14T07:57:41.415Z,101370.44
2018-07-14T08:00:09.287Z,101366.27
2018-07-14T08:02:36.983Z,101376.19
2018-07-14T08:05:04.958Z,101369.30
2018-07-14T08:07:33.021Z,101363.23
2018-07-14T08:10:01.473Z,101363.63
2018-07-14T08:12:29.093Z,101363.16
2018-07-14T08:14:57.932Z,101364.92
2018-07-14T08:17:26.472Z,101363.58
2018-07-14T08:19:54.332Z,101360.73
2018-07-14T08:22:22.157Z,101359.76
2018-07-14T08:24:49.824Z,101354.70
2018-07-14T08:27:17.397Z,101360.19
2018-07-14T08:29:45.501Z,101359.06
2018-07-14T08:32:13.835Z,101360.31
2018-07-14T08:34:41.427Z,101239.84
2018-07-14T08:37:09.508Z,101349.83
2018-07-14T08:39:37.673Z,101348.51
2018-07-14T08:42:05.384Z,101347.53
2018-07-14T08:44:33.609Z,101346.02
2018-07-14T08:47:01.340Z,101347.06
2018-07-14T08:49:29.319Z,101340.97
2018-07-14T08:51:57.595Z,101334.86
2018-07-14T08:54:25.568Z,101334.58
2018-07-14T08:56:53.311Z,101332.03
2018-07-14T08:59:52.025Z,101335.13
2018-07-14T09:02:19.627Z,101334.14
2018-07-14T09:04:47.273Z,101327.70
2018-07-14T09:07:14.988Z,101321.75
2018-07-14T09:09:43.214Z,101323.81
2018-07-14T09:12:10.931Z,101324.89
2018-07-14T09:14:38.813Z,101319.13
2018-07-14T09:17:06.576Z,101315.73
2018-07-14T09:19:34.427Z,101317.80
2018-07-14T09:22:02.293Z,101314.23
2018-07-14T09:24:29.933Z,101314.75
2018-07-14T09:26:57.729Z,101312.39
2018-07-14T09:29:25.587Z,101312.05
2018-07-14T09:31:53.215Z,101313.23
2018-07-14T09:34:20.988Z,101312.38
2018-07-14T09:36:48.806Z,101318.25
2018-07-14T09:39:16.408Z,101319.11
2018-07-14T09:41:44.317Z,101311.59
2018-07-14T09:44:12.186Z,101319.10
2018-07-14T09:46:39.817Z,101223.00
2018-07-14T09:49:07.463Z,101318.58
2018-07-14T09:51:35.314Z,101319.77
2018-07-14T09:54:03.023Z,101315.28
2018-07-14T09:56:31.251Z,101317.34
2018-07-14T09:58:59.094Z,101317.64
2018-07-14T10:01:26.800Z,101316.20
2018-07-14T10:03:54.648Z,101314.07
2018-07-14T10:06:22.399Z,101318.80
2018-07-14T10:08:50.017Z,101310.64
2018-07-14T10:11:17.808Z,101305.55
2018-07-14T10:13:46.357Z,101301.18
2018-07-14T10:16:13.919Z,101299.16
2018-07-14T10:18:41.774Z,101304.31
2018-07-14T10:21:09.685Z,101299.36
2018-07-14T10:23:37.304Z,101300.92
2018-07-14T10:26:04.951Z,101296.17
2018-07-14T10:28:32.850Z,101287.41
2018-07-14T10:31:00.555Z,101287.45
2018-07-14T10:33:28.325Z,101290.93
2018-07-14T10:35:56.057Z,101285.81
2018-07-14T10:38:23.717Z,101288.23
2018-07-14T10:40:51.477Z,101279.19
2018-07-14T10:43:20.498Z,101281.88
2018-07-14T10:45:48.269Z,101278.14
2018-07-14T10:48:16.094Z,101277.27
2018-07-14T10:50:43.948Z,101271.54
2018-07-14T10:53:11.798Z,101270.59
2018-07-14T10:55:39.553Z,101264.00
2018-07-14T10:58:07.472Z,101261.05
2018-07-14T11:00:35.112Z,101257.05
2018-07-14T11:03:03.842Z,101252.53
2018-07-14T11:05:31.559Z,101251.82
2018-07-14T11:07:59.269Z,101240.23
2018-07-14T11:10:27.673Z,101242.89
2018-07-14T11:12:55.400Z,101250.22
2018-07-14T11:15:23.009Z,101246.56
2018-07-14T11:17:50.768Z,101243.41
2018-07-14T11:20:18.503Z,101247.66
2018-07-14T11:22:46.197Z,101246.05
2018-07-14T11:25:13.859Z,101249.23
2018-07-14T11:27:41.545Z,101242.16
2018-07-14T11:30:09.258Z,101243.87
2018-07-14T11:32:37.207Z,101243.33
2018-07-14T11:35:04.894Z,101245.11
2018-07-14T11:37:32.812Z,101243.22
2018-07-14T11:40:00.651Z,101237.00
2018-07-14T11:42:28.462Z,101236.60
2018-07-14T11:44:56.129Z,101235.54
2018-07-14T11:47:23.869Z,101234.48
2018-07-14T11:49:51.565Z,101234.16
2018-07-14T11:52:19.175Z,101210.37
2018-07-14T11:54:47.053Z,101230.55
2018-07-14T11:57:14.922Z,101229.18
2018-07-14T11:59:43.038Z,101226.63
2018-07-14T12:02:11.083Z,101219.96
2018-07-14T12:43:40.668Z,101204.03
2018-07-14T12:46:08.435Z,101197.95
2018-07-14T12:48:36.095Z,101201.88
2018-07-14T12:51:03.710Z,101205.91
2018-07-14T12:53:31.509Z,101200.41
2018-07-14T12:55:59.098Z,101195.56
2018-07-14T12:58:26.762Z,101191.03
2018-07-14T13:00:54.637Z,101202.14
2018-07-14T13:03:22.265Z,101195.27
2018-07-14T13:05:49.924Z,101201.08
2018-07-14T13:08:17.725Z,101196.44
2018-07-14T13:10:45.354Z,101188.48
2018-07-14T13:13:13.031Z,101184.52
2018-07-14T13:15:40.924Z,101180.03
2018-07-14T13:18:08.625Z,101182.22
2018-07-14T13:20:36.278Z,101180.28
2018-07-14T13:23:04.156Z,101184.98
2018-07-14T13:25:31.760Z,101171.49
2018-07-14T13:27:59.381Z,101173.16
2018-07-14T13:30:27.207Z,101172.59
2018-07-14T13:32:54.857Z,101164.40
2018-07-14T13:35:22.544Z,101162.91
2018-07-14T13:37:50.330Z,101164.03
2018-07-14T13:40:17.932Z,101158.83
2018-07-14T13:42:46.366Z,101158.45
2018-07-14T13:45:15.364Z,101151.83
2018-07-14T13:47:43.547Z,101155.33
2018-07-14T13:50:11.202Z,101157.41
2018-07-14T13:52:39.289Z,101160.55
2018-07-14T13:55:06.961Z,101157.00
2018-07-14T13:57:34.658Z,101158.84
2018-07-14T14:00:02.415Z,101148.31
2018-07-14T14:02:30.076Z,101150.28
2018-07-14T14:04:57.703Z,101145.06
2018-07-14T14:07:25.377Z,101146.48
2018-07-14T14:09:53.000Z,101140.75
2018-07-14T14:12:20.719Z,101146.28
2018-07-14T14:14:48.559Z,101138.84
2018-07-14T14:17:16.217Z,101148.33
2018-07-14T14:19:43.817Z,101149.23
2018-07-14T14:22:11.525Z,101144.45
2018-07-14T14:24:39.129Z,101141.58
2018-07-14T14:27:06.761Z,101151.58
2018-07-14T14:29:34.732Z,101149.38
2018-07-14T14:32:02.376Z,101153.03
2018-07-14T14:34:30.074Z,101151.61
2018-07-14T14:36:57.952Z,101143.09
2018-07-14T14:39:25.502Z,101143.67
2018-07-14T14:41:53.161Z,101137.05
2018-07-14T14:44:21.116Z,101139.67
2018-07-14T14:46:48.759Z,101134.06
2018-07-14T14:49:16.423Z,101136.26
2018-07-14T14:51:44.168Z,101134.77
2018-07-14T14:54:11.818Z,101139.06
2018-07-14T14:56:39.420Z,101133.45
2018-07-14T14:59:07.364Z,101133.49
2018-07-14T15:01:35.052Z,101134.73
2018-07-14T15:04:02.616Z,101129.25
2018-07-14T15:06:30.471Z,101132.00
2018-07-14T15:08:58.088Z,101128.39
2018-07-14T15:11:25.705Z,101135.92
2018-07-14T15:13:53.644Z,101132.47
2018-07-14T15:16:21.275Z,101130.91
2018-07-14T15:18:48.947Z,101127.59
2018-07-14T15:21:16.743Z,101128.77
2018-07-14T15:23:44.372Z,101040.87
2018-07-14T15:26:11.986Z,101130.65
2018-07-14T15:28:39.828Z,101128.77
2018-07-14T15:31:07.486Z,101127.01
2018-07-14T15:33:35.121Z,101129.02
2018-07-14T15:36:03.003Z,101130.55
2018-07-14T15:38:30.572Z,101132.74
2018-07-14T15:40:58.115Z,101136.03
2018-07-14T15:43:25.949Z,101135.64
2018-07-14T15:45:53.565Z,101133.88
2018-07-14T15:48:21.210Z,101124.02
2018-07-14T15:50:49.391Z,101137.15
2018-07-14T15:53:17.509Z,101125.08
2018-07-14T15:55:45.216Z,101127.75
2018-07-14T15:58:13.097Z,101116.46
2018-07-14T16:00:40.724Z,101122.42
2018-07-14T16:03:08.278Z,101123.44
2018-07-14T16:05:36.329Z,101115.00
2018-07-14T16:08:03.970Z,101117.55
2018-07-14T16:10:31.679Z,101123.36
2018-07-14T16:12:59.803Z,101117.94
2018-07-14T16:15:27.615Z,101130.65
2018-07-14T16:17:55.215Z,101120.58
2018-07-14T16:20:23.103Z,101126.38
2018-07-14T16:22:50.666Z,101114.58
2018-07-14T16:25:18.320Z,101122.66
2018-07-14T16:27:46.407Z,101123.91
2018-07-14T16:30:14.006Z,101122.92
2018-07-14T16:32:41.592Z,101128.48
2018-07-14T16:35:09.475Z,101125.78
2018-07-14T16:37:37.182Z,101119.89
2018-07-14T16:40:04.918Z,101131.31
2018-07-14T16:42:32.921Z,101130.17
2018-07-14T16:45:00.602Z,101128.55
2018-07-14T16:47:28.248Z,101129.95
2018-07-14T16:49:56.118Z,101128.84
2018-07-14T16:52:23.867Z,101127.66
2018-07-14T16:54:51.530Z,101127.60
2018-07-14T16:57:19.427Z,101128.68
2018-07-14T16:59:47.091Z,101132.50
2018-07-14T17:02:14.689Z,101130.02
2018-07-14T17:04:42.861Z,101128.86
2018-07-14T17:07:10.483Z,101129.11
2018-07-14T17:09:38.097Z,101132.80
2018-07-14T17:12:05.920Z,101141.77
2018-07-14T17:14:33.550Z,101141.28
2018-07-14T17:17:01.180Z,101143.02
2018-07-14T17:19:29.064Z,101140.84
2018-07-14T17:21:56.713Z,101142.42
2018-07-14T17:24:24.368Z,101140.06
2018-07-14T17:26:52.349Z,101142.36
2018-07-14T17:29:19.979Z,101150.14
2018-07-14T17:31:47.649Z,101154.19
2018-07-14T17:34:15.554Z,101146.03
2018-07-14T17:36:43.117Z,101146.77
2018-07-14T17:39:10.695Z,101153.14
2018-07-14T17:41:38.609Z,101144.34
2018-07-14T17:44:06.304Z,101151.55
2018-07-14T17:46:33.942Z,101147.30
2018-07-14T17:49:01.925Z,101146.48
2018-07-14T17:51:29.599Z,101144.99
2018-07-14T17:53:57.442Z,101143.78
2018-07-14T17:56:25.558Z,101144.52
2018-07-14T17:58:53.201Z,101152.27
2018-07-14T18:01:20.815Z,101147.20
2018-07-14T18:03:48.757Z,101153.70
2018-07-14T18:06:16.437Z,101159.03
2018-07-14T18:08:44.061Z,101154.94
2018-07-14T18:11:11.940Z,101151.73
2018-07-14T18:13:39.538Z,101158.78
2018-07-14T18:16:07.126Z,101160.36
2018-07-14T18:18:35.582Z,101159.17
2018-07-14T18:21:04.062Z,101168.27
2018-07-14T18:23:32.605Z,101175.20
2018-07-14T18:26:01.299Z,101168.41
2018-07-14T18:28:29.342Z,101170.63
2018-07-14T18:30:56.980Z,101161.96
2018-07-14T18:33:24.743Z,101169.14
2018-07-14T18:35:52.470Z,101165.41
2018-07-14T18:38:20.078Z,101168.13
2018-07-14T18:40:47.797Z,101158.95
2018-07-14T18:43:15.498Z,101163.39
2018-07-14T18:45:43.101Z,101162.88
2018-07-14T18:48:11.002Z,101161.03
2018-07-14T18:50:38.723Z,101161.05
2018-07-14T18:53:06.505Z,101164.48
2018-07-14T18:55:34.410Z,101162.28
2018-07-14T18:58:02.015Z,101164.50
2018-07-14T19:00:29.708Z,101166.88
2018-07-14T19:02:57.600Z,101169.95
2018-07-14T19:05:25.237Z,101170.28
2018-07-14T19:07:53.001Z,101173.89
2018-07-14T19:10:20.872Z,101167.05
2018-07-14T19:12:48.499Z,101174.92
2018-07-14T19:15:16.226Z,101172.34
2018-07-14T19:17:44.192Z,101177.62
2018-07-14T19:20:11.805Z,101172.34
2018-07-14T19:22:39.625Z,101174.91
2018-07-14T19:25:07.528Z,101177.98
2018-07-14T19:27:35.143Z,101173.88
2018-07-14T19:30:02.989Z,101176.61
2018-07-14T19:32:30.889Z,101182.07
2018-07-14T19:34:58.576Z,101180.34
2018-07-14T19:37:26.270Z,101181.16
2018-07-14T19:39:54.025Z,101175.17
2018-07-14T19:42:21.635Z,101183.20
2018-07-14T19:44:49.423Z,101180.11
2018-07-14T19:47:17.170Z,101172.94
2018-07-14T19:49:44.759Z,101174.80
2018-07-14T19:52:12.525Z,101168.16
2018-07-14T19:54:40.352Z,101174.61
2018-07-14T19:57:08.200Z,101174.61
2018-07-14T19:59:35.976Z,101172.02
2018-07-14T20:02:03.892Z,101179.69
2018-07-14T20:04:31.535Z,101184.44
2018-07-14T20:06:59.153Z,101175.53
2018-07-14T20:09:26.765Z,101182.84
2018-07-14T20:11:54.431Z,101183.13
2018-07-14T20:14:22.199Z,101181.06
2018-07-14T20:16:49.878Z,101183.57
2018-07-14T20:19:17.429Z,101181.00
2018-07-14T20:21:45.063Z,101174.16
2018-07-14T20:24:12.860Z,101182.15
2018-07-14T20:26:40.425Z,101179.91
2018-07-14T20:29:08.176Z,101179.91
2018-07-14T20:31:35.979Z,101183.94
2018-07-14T20:34:03.622Z,101180.34
2018-07-14T20:36:31.518Z,101181.36
2018-07-14T20:38:59.057Z,101181.81
2018-07-14T20:41:26.744Z,101181.09
2018-07-14T20:43:54.444Z,101189.39
2018-07-14T20:46:22.331Z,101187.62
2018-07-14T20:48:49.961Z,101190.81
2018-07-14T20:51:17.594Z,101186.22
2018-07-14T20:53:45.358Z,101196.06
2018-07-14T20:56:12.996Z,101190.56
2018-07-14T20:58:40.868Z,101194.62
2018-07-14T21:01:08.521Z,101194.05
2018-07-14T21:03:36.252Z,101204.05
2018-07-14T21:06:04.083Z,101208.38
2018-07-14T21:08:31.722Z,101210.37
2018-07-14T21:10:59.326Z,101093.05
2018-07-14T21:13:27.158Z,101204.26
2018-07-14T21:15:54.967Z,101208.95
2018-07-14T21:18:22.617Z,101212.66
2018-07-14T21:20:50.450Z,101211.73
2018-07-14T21:23:18.085Z,101217.59
2018-07-14T21:25:45.778Z,101221.79
2018-07-14T21:28:13.698Z,101227.34
2018-07-14T21:30:41.532Z,101231.66
2018-07-14T21:33:09.170Z,101225.47
2018-07-14T21:35:37.107Z,101228.30
2018-07-14T21:38:04.933Z,101234.04
2018-07-14T21:40:32.596Z,101221.41
2018-07-14T21:43:00.341Z,101130.69
2018-07-14T21:45:28.136Z,101220.08
2018-07-14T21:47:55.764Z,101218.20
2018-07-14T21:50:23.429Z,101219.33
2018-07-14T21:52:51.070Z,101227.77
2018-07-14T21:55:18.810Z,101223.84
2018-07-14T21:57:46.588Z,101221.95
2018-07-14T22:00:31.435Z,101222.59
2018-07-14T22:02:59.580Z,101221.16
2018-07-14T22:05:27.128Z,101232.70
2018-07-14T22:07:54.816Z,101230.39
2018-07-14T22:10:22.997Z,101232.69
2018-07-14T22:12:51.418Z,101226.69
2018-07-14T22:15:19.035Z,101225.77
2018-07-14T22:17:47.443Z,101223.50
2018-07-14T22:20:15.263Z,101218.52
2018-07-14T22:22:42.884Z,101214.89
2018-07-14T22:25:10.674Z,101218.05
2018-07-14T22:27:38.339Z,101211.06
2018-07-14T22:30:06.097Z,101214.07
2018-07-14T22:32:33.941Z,101213.84
2018-07-14T22:35:01.551Z,101218.58
2018-07-14T22:37:29.140Z,101215.78
2018-07-14T22:39:57.153Z,101217.43
2018-07-14T22:42:24.719Z,101219.94
2018-07-14T22:44:52.328Z,101220.23
2018-07-14T22:47:20.062Z,101222.02
2018-07-14T22:49:47.772Z,101217.72
2018-07-14T22:52:15.385Z,101219.89
2018-07-14T22:54:43.282Z,101217.47
2018-07-14T22:57:10.918Z,101219.95
2018-07-14T22:59:38.582Z,101222.11
2018-07-14T23:02:06.580Z,101219.66
2018-07-14T23:04:34.220Z,101218.06
2018-07-14T23:07:01.804Z,101221.44
2018-07-14T23:09:29.762Z,101224.30
2018-07-14T23:11:57.417Z,101222.22
2018-07-14T23:14:25.129Z,101229.28
2018-07-14T23:16:53.132Z,101235.96
2018-07-14T23:19:20.753Z,101243.89
2018-07-14T23:21:48.470Z,101240.97
2018-07-14T23:24:16.223Z,101242.61
2018-07-14T23:26:43.821Z,101236.27
2018-07-14T23:29:11.423Z,101236.69
2018-07-14T23:31:39.432Z,101237.45
2018-07-14T23:34:07.070Z,101239.96
2018-07-14T23:36:34.661Z,101239.23
2018-07-14T23:39:02.642Z,101229.02
2018-07-14T23:41:30.255Z,101227.95
2018-07-14T23:43:57.917Z,101219.09
2018-07-14T23:46:25.657Z,101219.76
2018-07-14T23:48:53.263Z,101228.03
2018-07-14T23:51:20.890Z,101233.20
2018-07-14T23:53:48.775Z,101230.29
2018-07-14T23:56:16.403Z,101230.42
2018-07-14T23:58:44.029Z,101232.41
